sensor_id;sensor_type;location;lat;lon;timestamp;noise_LAeq;noise_LA_min;noise_LA_max;noise_LA01;noise_LA95
72160;Laerm;60045;51.792;10.938;2023-07-29T00:01:02;50.04;37.25;52.00;;
72160;Laerm;60045;51.792;10.938;2023-07-29T00:03:27;50.16;35.47;51.86;;
72160;Laerm;60045;51.792;10.938;2023-07-29T00:05:55;50.13;37.61;52.28;;
72160;Laerm;60045;51.792;10.938;2023-07-29T00:08:21;49.11;37.41;51.90;;
72160;Laerm;60045;51.792;10.938;2023-07-29T00:10:47;48.83;37.52;50.80;;
72160;Laerm;60045;51.792;10.938;2023-07-29T00:13:12;48.98;38.02;50.85;;
72160;Laerm;60045;51.792;10.938;2023-07-29T00:15:38;48.94;36.94;51.14;;
72160;Laerm;60045;51.792;10.938;2023-07-29T00:18:04;49.06;37.48;51.05;;
72160;Laerm;60045;51.792;10.938;2023-07-29T00:20:29;54.07;36.84;69.38;;
72160;Laerm;60045;51.792;10.938;2023-07-29T00:22:55;48.90;36.33;51.10;;
72160;Laerm;60045;51.792;10.938;2023-07-29T00:25:23;54.03;35.14;71.03;;
72160;Laerm;60045;51.792;10.938;2023-07-29T00:27:48;54.82;36.08;68.25;;
72160;Laerm;60045;51.792;10.938;2023-07-29T00:30:14;53.77;36.04;66.25;;
72160;Laerm;60045;51.792;10.938;2023-07-29T00:32:40;51.71;35.86;53.62;;
72160;Laerm;60045;51.792;10.938;2023-07-29T00:35:06;53.01;37.74;62.99;;
72160;Laerm;60045;51.792;10.938;2023-07-29T00:37:32;51.80;37.36;53.54;;
72160;Laerm;60045;51.792;10.938;2023-07-29T00:39:58;54.50;36.02;69.38;;
72160;Laerm;60045;51.792;10.938;2023-07-29T00:42:24;51.62;34.97;53.48;;
72160;Laerm;60045;51.792;10.938;2023-07-29T00:44:49;55.02;35.90;68.60;;
72160;Laerm;60045;51.792;10.938;2023-07-29T00:47:15;51.55;35.97;53.39;;
72160;Laerm;60045;51.792;10.938;2023-07-29T00:49:42;55.67;37.11;68.20;;
72160;Laerm;60045;51.792;10.938;2023-07-29T00:52:09;51.50;34.89;53.85;;
72160;Laerm;60045;51.792;10.938;2023-07-29T00:54:37;51.47;34.86;53.58;;
72160;Laerm;60045;51.792;10.938;2023-07-29T00:57:03;51.49;35.07;53.74;;
72160;Laerm;60045;51.792;10.938;2023-07-29T00:59:28;55.23;35.28;70.53;;
72160;Laerm;60045;51.792;10.938;2023-07-29T01:01:57;55.33;37.02;70.06;;
72160;Laerm;60045;51.792;10.938;2023-07-29T01:04:23;51.36;35.79;53.29;;
72160;Laerm;60045;51.792;10.938;2023-07-29T01:07:11;53.63;36.33;67.07;;
72160;Laerm;60045;51.792;10.938;2023-07-29T01:12:08;51.05;34.47;53.18;;
72160;Laerm;60045;51.792;10.938;2023-07-29T01:17:09;51.01;34.16;53.18;;
72160;Laerm;60045;51.792;10.938;2023-07-29T01:19:42;55.03;34.10;71.12;;
72160;Laerm;60045;51.792;10.938;2023-07-29T01:22:10;47.36;31.27;53.03;;
72160;Laerm;60045;51.792;10.938;2023-07-29T01:24:36;32.43;29.54;38.37;;
72160;Laerm;60045;51.792;10.938;2023-07-29T01:27:02;49.01;28.82;66.08;;
72160;Laerm;60045;51.792;10.938;2023-07-29T01:29:29;34.86;30.16;46.91;;
72160;Laerm;60045;51.792;10.938;2023-07-29T01:31:56;33.17;30.43;38.82;;
72160;Laerm;60045;51.792;10.938;2023-07-29T01:34:29;54.69;29.21;69.26;;
72160;Laerm;60045;51.792;10.938;2023-07-29T01:36:57;50.57;29.33;67.35;;
72160;Laerm;60045;51.792;10.938;2023-07-29T01:39:27;50.39;29.36;69.72;;
72160;Laerm;60045;51.792;10.938;2023-07-29T01:41:54;53.80;29.71;70.81;;
72160;Laerm;60045;51.792;10.938;2023-07-29T01:44:20;31.67;29.71;39.34;;
72160;Laerm;60045;51.792;10.938;2023-07-29T01:46:46;32.11;30.06;37.98;;
72160;Laerm;60045;51.792;10.938;2023-07-29T01:49:12;53.21;31.94;70.03;;
72160;Laerm;60045;51.792;10.938;2023-07-29T01:51:38;34.00;31.29;41.36;;
72160;Laerm;60045;51.792;10.938;2023-07-29T01:54:04;34.91;31.74;43.71;;
72160;Laerm;60045;51.792;10.938;2023-07-29T01:56:29;48.92;31.84;65.31;;
72160;Laerm;60045;51.792;10.938;2023-07-29T01:58:55;33.76;31.49;36.08;;
72160;Laerm;60045;51.792;10.938;2023-07-29T02:01:21;33.88;29.62;44.67;;
72160;Laerm;60045;51.792;10.938;2023-07-29T02:03:47;31.77;29.50;37.87;;
72160;Laerm;60045;51.792;10.938;2023-07-29T02:06:19;32.03;30.37;35.26;;
72160;Laerm;60045;51.792;10.938;2023-07-29T02:08:45;33.32;30.91;43.69;;
72160;Laerm;60045;51.792;10.938;2023-07-29T02:11:11;48.48;31.37;64.58;;
72160;Laerm;60045;51.792;10.938;2023-07-29T02:13:36;50.65;32.95;68.03;;
72160;Laerm;60045;51.792;10.938;2023-07-29T02:16:02;57.65;34.53;77.82;;
72160;Laerm;60045;51.792;10.938;2023-07-29T02:18:28;63.44;33.71;80.14;;
72160;Laerm;60045;51.792;10.938;2023-07-29T02:20:54;35.42;31.72;42.03;;
72160;Laerm;60045;51.792;10.938;2023-07-29T02:23:20;36.35;33.85;42.28;;
72160;Laerm;60045;51.792;10.938;2023-07-29T02:25:45;49.34;32.15;64.19;;
72160;Laerm;60045;51.792;10.938;2023-07-29T02:28:11;56.12;29.43;71.35;;
72160;Laerm;60045;51.792;10.938;2023-07-29T02:30:40;30.72;29.17;33.53;;
72160;Laerm;60045;51.792;10.938;2023-07-29T02:33:06;54.81;29.87;72.06;;
72160;Laerm;60045;51.792;10.938;2023-07-29T02:35:33;34.85;29.10;54.11;;
72160;Laerm;60045;51.792;10.938;2023-07-29T02:37:58;31.44;29.31;37.86;;
72160;Laerm;60045;51.792;10.938;2023-07-29T02:40:24;53.57;29.69;70.71;;
72160;Laerm;60045;51.792;10.938;2023-07-29T02:42:51;49.67;27.86;64.77;;
72160;Laerm;60045;51.792;10.938;2023-07-29T02:45:17;48.54;27.93;64.90;;
72160;Laerm;60045;51.792;10.938;2023-07-29T02:47:43;50.39;28.13;66.61;;
72160;Laerm;60045;51.792;10.938;2023-07-29T02:50:09;30.06;27.73;36.12;;
72160;Laerm;60045;51.792;10.938;2023-07-29T02:52:35;28.88;27.49;34.91;;
72160;Laerm;60045;51.792;10.938;2023-07-29T02:55:00;29.30;27.53;36.94;;
72160;Laerm;60045;51.792;10.938;2023-07-29T02:57:26;28.83;27.49;41.25;;
72160;Laerm;60045;51.792;10.938;2023-07-29T02:59:52;55.21;28.60;74.41;;
72160;Laerm;60045;51.792;10.938;2023-07-29T03:02:18;48.50;29.34;65.00;;
72160;Laerm;60045;51.792;10.938;2023-07-29T03:04:43;56.50;29.62;75.88;;
72160;Laerm;60045;51.792;10.938;2023-07-29T03:07:09;32.39;28.76;41.32;;
72160;Laerm;60045;51.792;10.938;2023-07-29T03:09:36;51.34;28.91;69.83;;
72160;Laerm;60045;51.792;10.938;2023-07-29T03:12:01;59.68;30.46;75.39;;
72160;Laerm;60045;51.792;10.938;2023-07-29T03:14:27;53.20;28.23;70.72;;
72160;Laerm;60045;51.792;10.938;2023-07-29T03:16:53;56.37;27.90;72.06;;
72160;Laerm;60045;51.792;10.938;2023-07-29T03:19:19;55.49;28.09;69.92;;
72160;Laerm;60045;51.792;10.938;2023-07-29T03:21:45;32.24;27.91;46.40;;
72160;Laerm;60045;51.792;10.938;2023-07-29T03:24:11;53.79;28.15;67.81;;
72160;Laerm;60045;51.792;10.938;2023-07-29T03:26:36;54.98;28.43;71.63;;
72160;Laerm;60045;51.792;10.938;2023-07-29T03:29:02;54.74;29.15;68.60;;
72160;Laerm;60045;51.792;10.938;2023-07-29T03:31:28;34.05;28.36;49.22;;
72160;Laerm;60045;51.792;10.938;2023-07-29T03:33:54;49.42;27.99;65.82;;
72160;Laerm;60045;51.792;10.938;2023-07-29T03:36:20;49.96;28.06;65.76;;
72160;Laerm;60045;51.792;10.938;2023-07-29T03:38:46;43.28;28.59;66.42;;
72160;Laerm;60045;51.792;10.938;2023-07-29T03:41:12;53.08;28.57;70.17;;
72160;Laerm;60045;51.792;10.938;2023-07-29T03:43:38;33.06;28.55;44.10;;
72160;Laerm;60045;51.792;10.938;2023-07-29T03:46:03;56.34;29.38;72.93;;
72160;Laerm;60045;51.792;10.938;2023-07-29T03:48:30;34.56;29.34;45.97;;
72160;Laerm;60045;51.792;10.938;2023-07-29T03:50:56;42.57;29.65;53.10;;
72160;Laerm;60045;51.792;10.938;2023-07-29T03:53:22;63.85;31.36;82.69;;
72160;Laerm;60045;51.792;10.938;2023-07-29T03:55:48;52.63;30.66;71.20;;
72160;Laerm;60045;51.792;10.938;2023-07-29T03:58:15;34.39;30.26;49.78;;
72160;Laerm;60045;51.792;10.938;2023-07-29T04:00:41;54.35;30.66;70.34;;
72160;Laerm;60045;51.792;10.938;2023-07-29T04:03:07;39.95;29.36;59.16;;
72160;Laerm;60045;51.792;10.938;2023-07-29T04:05:33;59.32;32.84;74.09;;
72160;Laerm;60045;51.792;10.938;2023-07-29T04:07:59;53.81;30.09;72.50;;
72160;Laerm;60045;51.792;10.938;2023-07-29T04:10:25;34.92;29.25;46.31;;
72160;Laerm;60045;51.792;10.938;2023-07-29T04:12:51;54.56;30.38;68.87;;
72160;Laerm;60045;51.792;10.938;2023-07-29T04:15:16;35.04;29.49;46.67;;
72160;Laerm;60045;51.792;10.938;2023-07-29T04:17:42;37.77;29.22;48.47;;
72160;Laerm;60045;51.792;10.938;2023-07-29T04:20:08;35.71;29.33;46.29;;
72160;Laerm;60045;51.792;10.938;2023-07-29T04:22:34;51.95;29.15;68.36;;
72160;Laerm;60045;51.792;10.938;2023-07-29T04:25:00;51.46;29.28;67.00;;
72160;Laerm;60045;51.792;10.938;2023-07-29T04:27:25;54.48;29.25;69.28;;
72160;Laerm;60045;51.792;10.938;2023-07-29T04:29:51;56.12;30.52;71.71;;
72160;Laerm;60045;51.792;10.938;2023-07-29T04:32:17;55.61;28.91;70.45;;
72160;Laerm;60045;51.792;10.938;2023-07-29T04:34:43;49.54;28.27;67.49;;
72160;Laerm;60045;51.792;10.938;2023-07-29T04:37:08;54.18;28.35;71.80;;
72160;Laerm;60045;51.792;10.938;2023-07-29T04:39:34;49.02;29.54;64.67;;
72160;Laerm;60045;51.792;10.938;2023-07-29T04:42:00;59.28;30.80;72.92;;
72160;Laerm;60045;51.792;10.938;2023-07-29T04:44:26;40.44;28.38;60.54;;
72160;Laerm;60045;51.792;10.938;2023-07-29T04:46:52;49.28;29.27;66.00;;
72160;Laerm;60045;51.792;10.938;2023-07-29T04:49:17;35.59;29.05;49.24;;
72160;Laerm;60045;51.792;10.938;2023-07-29T04:51:43;55.24;28.66;70.10;;
72160;Laerm;60045;51.792;10.938;2023-07-29T04:54:09;50.45;29.60;65.83;;
72160;Laerm;60045;51.792;10.938;2023-07-29T04:56:35;34.37;29.02;49.50;;
72160;Laerm;60045;51.792;10.938;2023-07-29T04:59:01;51.71;28.21;70.27;;
72160;Laerm;60045;51.792;10.938;2023-07-29T05:01:26;57.01;30.84;69.39;;
72160;Laerm;60045;51.792;10.938;2023-07-29T05:03:52;51.37;29.00;68.81;;
72160;Laerm;60045;51.792;10.938;2023-07-29T05:06:18;50.44;28.70;65.80;;
72160;Laerm;60045;51.792;10.938;2023-07-29T05:08:44;38.51;28.43;59.30;;
72160;Laerm;60045;51.792;10.938;2023-07-29T05:11:10;50.75;29.92;66.70;;
72160;Laerm;60045;51.792;10.938;2023-07-29T05:13:36;49.91;29.69;66.60;;
72160;Laerm;60045;51.792;10.938;2023-07-29T05:16:02;52.76;30.58;66.12;;
72160;Laerm;60045;51.792;10.938;2023-07-29T05:18:28;54.63;30.84;67.40;;
72160;Laerm;60045;51.792;10.938;2023-07-29T05:20:54;45.77;29.39;65.74;;
72160;Laerm;60045;51.792;10.938;2023-07-29T05:23:19;52.81;28.66;72.08;;
72160;Laerm;60045;51.792;10.938;2023-07-29T05:25:45;32.84;28.68;45.73;;
72160;Laerm;60045;51.792;10.938;2023-07-29T05:28:11;38.22;29.30;56.51;;
72160;Laerm;60045;51.792;10.938;2023-07-29T05:30:37;59.26;31.06;75.19;;
72160;Laerm;60045;51.792;10.938;2023-07-29T05:33:04;60.27;30.87;73.77;;
72160;Laerm;60045;51.792;10.938;2023-07-29T05:35:30;56.21;32.64;69.01;;
72160;Laerm;60045;51.792;10.938;2023-07-29T05:37:56;60.17;32.35;75.99;;
72160;Laerm;60045;51.792;10.938;2023-07-29T05:40:22;60.03;32.71;78.07;;
72160;Laerm;60045;51.792;10.938;2023-07-29T05:42:48;53.16;31.95;70.74;;
72160;Laerm;60045;51.792;10.938;2023-07-29T05:45:13;65.06;31.00;83.01;;
72160;Laerm;60045;51.792;10.938;2023-07-29T05:47:39;36.84;30.99;46.64;;
72160;Laerm;60045;51.792;10.938;2023-07-29T05:50:05;55.48;32.00;68.32;;
72160;Laerm;60045;51.792;10.938;2023-07-29T05:52:31;53.35;31.77;71.15;;
72160;Laerm;60045;51.792;10.938;2023-07-29T05:54:57;38.21;32.40;54.81;;
72160;Laerm;60045;51.792;10.938;2023-07-29T05:57:23;58.73;33.35;70.67;;
72160;Laerm;60045;51.792;10.938;2023-07-29T05:59:49;47.61;31.20;69.41;;
72160;Laerm;60045;51.792;10.938;2023-07-29T06:02:14;58.80;32.09;72.42;;
72160;Laerm;60045;51.792;10.938;2023-07-29T06:04:40;58.42;31.97;75.77;;
72160;Laerm;60045;51.792;10.938;2023-07-29T06:07:06;58.27;36.54;68.99;;
72160;Laerm;60045;51.792;10.938;2023-07-29T06:09:32;57.66;31.74;71.11;;
72160;Laerm;60045;51.792;10.938;2023-07-29T06:11:57;33.65;29.90;43.08;;
72160;Laerm;60045;51.792;10.938;2023-07-29T06:14:23;50.02;32.62;65.75;;
72160;Laerm;60045;51.792;10.938;2023-07-29T06:16:49;55.58;34.73;70.40;;
72160;Laerm;60045;51.792;10.938;2023-07-29T06:19:15;58.65;35.20;71.09;;
72160;Laerm;60045;51.792;10.938;2023-07-29T06:21:41;56.24;45.17;70.90;;
72160;Laerm;60045;51.792;10.938;2023-07-29T06:24:06;60.54;44.61;75.11;;
72160;Laerm;60045;51.792;10.938;2023-07-29T06:26:32;63.52;36.41;75.38;;
72160;Laerm;60045;51.792;10.938;2023-07-29T06:28:58;62.89;34.69;74.12;;
72160;Laerm;60045;51.792;10.938;2023-07-29T06:31:24;55.65;32.37;69.61;;
72160;Laerm;60045;51.792;10.938;2023-07-29T06:33:49;62.64;34.65;77.19;;
72160;Laerm;60045;51.792;10.938;2023-07-29T06:36:15;56.82;32.54;70.78;;
72160;Laerm;60045;51.792;10.938;2023-07-29T06:38:41;59.36;31.11;75.69;;
72160;Laerm;60045;51.792;10.938;2023-07-29T06:41:07;57.62;30.64;72.82;;
72160;Laerm;60045;51.792;10.938;2023-07-29T06:43:32;61.30;33.24;75.20;;
72160;Laerm;60045;51.792;10.938;2023-07-29T06:45:58;54.69;31.87;70.86;;
72160;Laerm;60045;51.792;10.938;2023-07-29T06:48:24;62.03;40.53;76.51;;
72160;Laerm;60045;51.792;10.938;2023-07-29T06:50:50;65.00;40.37;78.40;;
72160;Laerm;60045;51.792;10.938;2023-07-29T06:53:16;63.39;36.56;76.81;;
72160;Laerm;60045;51.792;10.938;2023-07-29T06:55:42;63.01;35.92;75.35;;
72160;Laerm;60045;51.792;10.938;2023-07-29T06:58:08;59.56;34.48;74.58;;
72160;Laerm;60045;51.792;10.938;2023-07-29T07:00:34;58.86;32.51;75.55;;
72160;Laerm;60045;51.792;10.938;2023-07-29T07:03:00;62.62;40.42;75.26;;
72160;Laerm;60045;51.792;10.938;2023-07-29T07:05:25;60.08;34.51;74.15;;
72160;Laerm;60045;51.792;10.938;2023-07-29T07:07:51;57.63;33.90;69.88;;
72160;Laerm;60045;51.792;10.938;2023-07-29T07:10:17;64.47;34.55;75.85;;
72160;Laerm;60045;51.792;10.938;2023-07-29T07:12:43;60.60;34.01;73.01;;
72160;Laerm;60045;51.792;10.938;2023-07-29T07:15:09;59.45;33.82;72.34;;
72160;Laerm;60045;51.792;10.938;2023-07-29T07:17:35;59.98;32.70;72.99;;
72160;Laerm;60045;51.792;10.938;2023-07-29T07:20:00;57.67;31.89;71.96;;
72160;Laerm;60045;51.792;10.938;2023-07-29T07:22:26;60.21;30.33;72.98;;
72160;Laerm;60045;51.792;10.938;2023-07-29T07:24:52;58.96;35.28;71.82;;
72160;Laerm;60045;51.792;10.938;2023-07-29T07:27:18;58.70;31.35;73.72;;
72160;Laerm;60045;51.792;10.938;2023-07-29T07:29:43;60.20;32.25;71.47;;
72160;Laerm;60045;51.792;10.938;2023-07-29T07:32:09;59.84;33.02;72.41;;
72160;Laerm;60045;51.792;10.938;2023-07-29T07:34:35;59.93;34.59;72.08;;
72160;Laerm;60045;51.792;10.938;2023-07-29T07:37:01;59.80;32.86;74.87;;
72160;Laerm;60045;51.792;10.938;2023-07-29T07:39:28;58.48;34.84;72.40;;
72160;Laerm;60045;51.792;10.938;2023-07-29T07:41:54;61.96;35.98;71.89;;
72160;Laerm;60045;51.792;10.938;2023-07-29T07:44:20;61.12;35.42;73.32;;
72160;Laerm;60045;51.792;10.938;2023-07-29T07:46:46;61.71;36.08;75.45;;
72160;Laerm;60045;51.792;10.938;2023-07-29T07:49:11;59.75;33.62;72.02;;
72160;Laerm;60045;51.792;10.938;2023-07-29T07:51:38;62.15;35.98;72.24;;
72160;Laerm;60045;51.792;10.938;2023-07-29T07:54:04;58.64;36.05;71.32;;
72160;Laerm;60045;51.792;10.938;2023-07-29T07:56:30;60.38;36.15;70.25;;
72160;Laerm;60045;51.792;10.938;2023-07-29T07:58:56;51.66;32.86;67.91;;
72160;Laerm;60045;51.792;10.938;2023-07-29T08:01:21;62.14;35.04;72.58;;
72160;Laerm;60045;51.792;10.938;2023-07-29T08:03:47;60.36;34.99;71.50;;
72160;Laerm;60045;51.792;10.938;2023-07-29T08:06:13;57.16;34.70;72.09;;
72160;Laerm;60045;51.792;10.938;2023-07-29T08:08:39;62.78;36.93;72.87;;
72160;Laerm;60045;51.792;10.938;2023-07-29T08:11:05;61.59;38.04;76.43;;
72160;Laerm;60045;51.792;10.938;2023-07-29T08:13:30;63.57;39.82;74.67;;
72160;Laerm;60045;51.792;10.938;2023-07-29T08:15:56;63.14;41.16;74.85;;
72160;Laerm;60045;51.792;10.938;2023-07-29T08:18:22;64.48;44.48;76.93;;
72160;Laerm;60045;51.792;10.938;2023-07-29T08:20:51;63.85;44.20;75.47;;
72160;Laerm;60045;51.792;10.938;2023-07-29T08:23:18;63.24;40.10;75.84;;
72160;Laerm;60045;51.792;10.938;2023-07-29T08:25:43;63.63;38.93;76.34;;
72160;Laerm;60045;51.792;10.938;2023-07-29T08:28:09;62.61;40.20;75.65;;
72160;Laerm;60045;51.792;10.938;2023-07-29T08:30:36;64.94;42.26;74.80;;
72160;Laerm;60045;51.792;10.938;2023-07-29T08:33:02;62.09;35.02;75.11;;
72160;Laerm;60045;51.792;10.938;2023-07-29T08:35:28;63.38;35.38;74.40;;
72160;Laerm;60045;51.792;10.938;2023-07-29T08:37:53;64.93;39.18;73.79;;
72160;Laerm;60045;51.792;10.938;2023-07-29T08:40:22;67.06;38.94;82.48;;
72160;Laerm;60045;51.792;10.938;2023-07-29T08:42:53;61.86;41.02;75.25;;
72160;Laerm;60045;51.792;10.938;2023-07-29T08:45:20;62.94;39.44;72.50;;
72160;Laerm;60045;51.792;10.938;2023-07-29T08:47:46;65.62;37.00;76.12;;
72160;Laerm;60045;51.792;10.938;2023-07-29T08:50:13;65.75;39.01;78.42;;
72160;Laerm;60045;51.792;10.938;2023-07-29T08:52:40;61.67;34.25;76.93;;
72160;Laerm;60045;51.792;10.938;2023-07-29T08:55:07;60.44;33.56;73.48;;
72160;Laerm;60045;51.792;10.938;2023-07-29T08:57:33;60.84;37.58;71.83;;
72160;Laerm;60045;51.792;10.938;2023-07-29T08:59:59;62.66;35.57;73.11;;
72160;Laerm;60045;51.792;10.938;2023-07-29T09:02:26;64.26;35.23;74.57;;
72160;Laerm;60045;51.792;10.938;2023-07-29T09:04:52;63.32;35.50;74.45;;
72160;Laerm;60045;51.792;10.938;2023-07-29T09:07:17;57.49;34.33;69.56;;
72160;Laerm;60045;51.792;10.938;2023-07-29T09:09:44;61.36;34.81;77.03;;
72160;Laerm;60045;51.792;10.938;2023-07-29T09:12:10;68.00;37.57;83.31;;
72160;Laerm;60045;51.792;10.938;2023-07-29T09:14:37;61.51;37.14;73.99;;
72160;Laerm;60045;51.792;10.938;2023-07-29T09:17:02;63.14;37.23;75.12;;
72160;Laerm;60045;51.792;10.938;2023-07-29T09:19:33;62.65;34.95;74.58;;
72160;Laerm;60045;51.792;10.938;2023-07-29T09:21:59;62.29;36.50;76.42;;
72160;Laerm;60045;51.792;10.938;2023-07-29T09:24:25;61.94;35.62;73.11;;
72160;Laerm;60045;51.792;10.938;2023-07-29T09:26:54;61.79;35.75;72.35;;
72160;Laerm;60045;51.792;10.938;2023-07-29T09:29:23;61.20;35.71;72.78;;
72160;Laerm;60045;51.792;10.938;2023-07-29T09:31:49;62.96;39.54;75.47;;
72160;Laerm;60045;51.792;10.938;2023-07-29T09:34:15;62.12;34.48;72.64;;
72160;Laerm;60045;51.792;10.938;2023-07-29T09:36:42;64.55;37.02;78.96;;
72160;Laerm;60045;51.792;10.938;2023-07-29T09:39:11;63.09;42.18;75.49;;
72160;Laerm;60045;51.792;10.938;2023-07-29T09:41:38;58.67;34.07;70.77;;
72160;Laerm;60045;51.792;10.938;2023-07-29T09:44:04;59.21;33.75;74.37;;
72160;Laerm;60045;51.792;10.938;2023-07-29T09:46:37;64.26;37.00;75.39;;
72160;Laerm;60045;51.792;10.938;2023-07-29T09:49:06;61.47;34.55;75.02;;
72160;Laerm;60045;51.792;10.938;2023-07-29T09:51:38;63.40;35.13;72.93;;
72160;Laerm;60045;51.792;10.938;2023-07-29T09:54:04;61.20;38.44;77.06;;
72160;Laerm;60045;51.792;10.938;2023-07-29T09:56:30;60.29;49.58;71.18;;
72160;Laerm;60045;51.792;10.938;2023-07-29T09:58:56;61.80;42.72;71.31;;
72160;Laerm;60045;51.792;10.938;2023-07-29T10:01:22;61.68;36.92;73.91;;
72160;Laerm;60045;51.792;10.938;2023-07-29T10:03:48;57.12;34.61;70.15;;
72160;Laerm;60045;51.792;10.938;2023-07-29T10:06:14;62.35;35.64;73.59;;
72160;Laerm;60045;51.792;10.938;2023-07-29T10:08:40;60.15;35.37;72.62;;
72160;Laerm;60045;51.792;10.938;2023-07-29T10:11:08;63.99;39.19;76.90;;
72160;Laerm;60045;51.792;10.938;2023-07-29T10:13:34;60.89;35.92;72.26;;
72160;Laerm;60045;51.792;10.938;2023-07-29T10:16:00;59.82;33.74;72.73;;
72160;Laerm;60045;51.792;10.938;2023-07-29T10:18:29;57.56;34.69;72.76;;
72160;Laerm;60045;51.792;10.938;2023-07-29T10:20:56;59.23;36.71;69.86;;
72160;Laerm;60045;51.792;10.938;2023-07-29T10:23:22;60.62;35.93;74.83;;
72160;Laerm;60045;51.792;10.938;2023-07-29T10:25:50;59.74;34.44;71.56;;
72160;Laerm;60045;51.792;10.938;2023-07-29T10:28:19;61.19;38.52;79.95;;
72160;Laerm;60045;51.792;10.938;2023-07-29T10:30:46;60.97;35.07;77.51;;
72160;Laerm;60045;51.792;10.938;2023-07-29T10:33:12;58.10;36.18;71.07;;
72160;Laerm;60045;51.792;10.938;2023-07-29T10:35:38;61.44;35.91;72.72;;
72160;Laerm;60045;51.792;10.938;2023-07-29T10:38:05;60.20;35.65;72.42;;
72160;Laerm;60045;51.792;10.938;2023-07-29T10:40:44;62.26;35.37;73.33;;
72160;Laerm;60045;51.792;10.938;2023-07-29T10:43:11;62.76;37.48;74.34;;
72160;Laerm;60045;51.792;10.938;2023-07-29T10:45:37;59.89;39.63;71.86;;
72160;Laerm;60045;51.792;10.938;2023-07-29T10:48:07;59.85;34.72;69.90;;
72160;Laerm;60045;51.792;10.938;2023-07-29T10:50:33;60.13;35.31;71.32;;
72160;Laerm;60045;51.792;10.938;2023-07-29T10:52:59;59.03;34.09;71.11;;
72160;Laerm;60045;51.792;10.938;2023-07-29T10:55:26;60.40;34.31;75.74;;
72160;Laerm;60045;51.792;10.938;2023-07-29T10:57:52;60.32;36.90;72.96;;
72160;Laerm;60045;51.792;10.938;2023-07-29T11:00:30;60.62;36.45;73.20;;
72160;Laerm;60045;51.792;10.938;2023-07-29T11:03:04;62.02;38.56;73.59;;
72160;Laerm;60045;51.792;10.938;2023-07-29T11:08:17;62.00;46.17;75.34;;
72160;Laerm;60045;51.792;10.938;2023-07-29T11:10:44;62.70;33.91;73.74;;
72160;Laerm;60045;51.792;10.938;2023-07-29T11:13:22;60.70;32.24;73.53;;
72160;Laerm;60045;51.792;10.938;2023-07-29T11:15:48;60.17;31.56;73.23;;
72160;Laerm;60045;51.792;10.938;2023-07-29T11:18:16;54.25;35.57;67.97;;
72160;Laerm;60045;51.792;10.938;2023-07-29T11:20:42;61.56;37.59;73.92;;
72160;Laerm;60045;51.792;10.938;2023-07-29T11:23:07;53.96;35.23;68.17;;
72160;Laerm;60045;51.792;10.938;2023-07-29T11:25:33;64.23;38.21;76.83;;
72160;Laerm;60045;51.792;10.938;2023-07-29T11:28:00;60.42;38.00;73.04;;
72160;Laerm;60045;51.792;10.938;2023-07-29T11:30:26;61.52;37.43;74.75;;
72160;Laerm;60045;51.792;10.938;2023-07-29T11:32:53;61.54;36.46;74.08;;
72160;Laerm;60045;51.792;10.938;2023-07-29T11:35:20;59.69;35.25;71.88;;
72160;Laerm;60045;51.792;10.938;2023-07-29T11:37:47;59.42;31.10;68.88;;
72160;Laerm;60045;51.792;10.938;2023-07-29T11:40:14;62.41;30.66;74.82;;
72160;Laerm;60045;51.792;10.938;2023-07-29T11:42:40;61.02;35.02;71.55;;
72160;Laerm;60045;51.792;10.938;2023-07-29T11:45:06;61.29;36.31;72.42;;
72160;Laerm;60045;51.792;10.938;2023-07-29T11:47:33;62.19;38.17;76.10;;
72160;Laerm;60045;51.792;10.938;2023-07-29T11:50:05;61.35;37.75;71.79;;
72160;Laerm;60045;51.792;10.938;2023-07-29T11:52:35;60.22;37.98;71.83;;
72160;Laerm;60045;51.792;10.938;2023-07-29T11:55:01;61.66;37.25;75.70;;
72160;Laerm;60045;51.792;10.938;2023-07-29T11:57:28;59.38;38.49;70.97;;
72160;Laerm;60045;51.792;10.938;2023-07-29T11:59:54;64.29;38.31;79.69;;
72160;Laerm;60045;51.792;10.938;2023-07-29T12:02:20;62.51;36.49;75.10;;
72160;Laerm;60045;51.792;10.938;2023-07-29T12:04:46;58.26;33.81;68.63;;
72160;Laerm;60045;51.792;10.938;2023-07-29T12:07:13;60.71;43.47;71.37;;
72160;Laerm;60045;51.792;10.938;2023-07-29T12:09:39;62.78;40.16;72.60;;
72160;Laerm;60045;51.792;10.938;2023-07-29T12:12:06;61.00;36.95;71.48;;
72160;Laerm;60045;51.792;10.938;2023-07-29T12:14:32;59.73;32.61;71.94;;
72160;Laerm;60045;51.792;10.938;2023-07-29T12:17:01;58.25;30.74;70.94;;
72160;Laerm;60045;51.792;10.938;2023-07-29T12:19:34;60.40;38.49;73.86;;
72160;Laerm;60045;51.792;10.938;2023-07-29T12:22:03;60.59;35.06;72.63;;
72160;Laerm;60045;51.792;10.938;2023-07-29T12:24:30;62.35;37.76;72.20;;
72160;Laerm;60045;51.792;10.938;2023-07-29T12:26:56;60.07;35.81;71.50;;
72160;Laerm;60045;51.792;10.938;2023-07-29T12:29:21;62.58;36.51;73.42;;
72160;Laerm;60045;51.792;10.938;2023-07-29T12:31:48;60.91;35.94;76.11;;
72160;Laerm;60045;51.792;10.938;2023-07-29T12:34:20;61.40;32.28;73.13;;
72160;Laerm;60045;51.792;10.938;2023-07-29T12:36:47;61.79;34.22;78.95;;
72160;Laerm;60045;51.792;10.938;2023-07-29T12:39:19;61.25;36.22;71.90;;
72160;Laerm;60045;51.792;10.938;2023-07-29T12:41:45;61.05;30.73;74.20;;
72160;Laerm;60045;51.792;10.938;2023-07-29T12:44:11;61.07;32.28;74.18;;
72160;Laerm;60045;51.792;10.938;2023-07-29T12:46:37;61.15;34.64;72.41;;
72160;Laerm;60045;51.792;10.938;2023-07-29T12:49:03;62.77;35.66;73.47;;
72160;Laerm;60045;51.792;10.938;2023-07-29T12:51:29;61.77;35.79;72.37;;
72160;Laerm;60045;51.792;10.938;2023-07-29T12:53:54;62.95;36.70;74.91;;
72160;Laerm;60045;51.792;10.938;2023-07-29T12:56:20;59.81;36.89;72.32;;
72160;Laerm;60045;51.792;10.938;2023-07-29T12:58:46;61.95;33.70;72.72;;
72160;Laerm;60045;51.792;10.938;2023-07-29T13:01:12;58.55;34.07;71.64;;
72160;Laerm;60045;51.792;10.938;2023-07-29T13:03:44;59.65;34.40;71.82;;
72160;Laerm;60045;51.792;10.938;2023-07-29T13:06:10;61.34;37.78;74.24;;
72160;Laerm;60045;51.792;10.938;2023-07-29T13:08:36;63.35;37.05;73.73;;
72160;Laerm;60045;51.792;10.938;2023-07-29T13:11:02;61.33;41.79;71.80;;
72160;Laerm;60045;51.792;10.938;2023-07-29T13:13:28;60.93;39.06;76.37;;
72160;Laerm;60045;51.792;10.938;2023-07-29T13:15:54;61.75;40.71;71.85;;
72160;Laerm;60045;51.792;10.938;2023-07-29T13:18:20;58.91;35.84;70.36;;
72160;Laerm;60045;51.792;10.938;2023-07-29T13:20:46;61.23;34.94;73.62;;
72160;Laerm;60045;51.792;10.938;2023-07-29T13:23:12;61.83;33.87;72.21;;
72160;Laerm;60045;51.792;10.938;2023-07-29T13:25:38;62.05;31.96;75.41;;
72160;Laerm;60045;51.792;10.938;2023-07-29T13:28:03;60.82;34.98;73.04;;
72160;Laerm;60045;51.792;10.938;2023-07-29T13:30:30;67.92;33.31;85.11;;
72160;Laerm;60045;51.792;10.938;2023-07-29T13:32:56;60.64;34.88;72.26;;
72160;Laerm;60045;51.792;10.938;2023-07-29T13:35:22;69.26;42.49;85.03;;